Terminal Aerodrome Forecast
Issued by NWS

Home | Current Version | Previous Version | Text Only | Print | Product List | Glossary On
Versions: 1 2 3 4 5 6 7 8 9 10 11 12 13 14
000
FTUS43 KMPX 310500
TAFRNH
TAF
KRNH 310521Z 3106/0106 29003KT P6SM SKC
      TEMPO 3109/3112 6SM BR
     FM311600 31009KT P6SM SCT050
     FM010200 24003KT P6SM SKC=

USA.gov is the U.S. government's official web portal to all federal, state and local government web resources and services.